Time;durP1;ratioP1;P1;durP2;ratioP2;P2;SDS_P1;SDS_P2;PMS_P1;PMS_P2;Temp;Humidity;BMP_temperature;BMP_pressure;BME280_temperature;BME280_humidity;BME280_pressure;Samples;Min_cycle;Max_cycle;Signal;HPM_P1;HPM_P2
2023/08/13 00:02:16;;;;;;;11.27;3.05;;;16.40;99.90;;;;;;5059245;28;20044;-69
2023/08/13 00:04:42;;;;;;;11.05;2.90;;;;;;;;;;5060040;28;20033;-69
2023/08/13 00:07:09;;;;;;;7.90;2.63;;;;;;;;;;5060920;28;20479;-69
2023/08/13 00:09:36;;;;;;;10.13;2.50;;;;;;;;;;5042132;28;20053;-69
2023/08/13 00:12:02;;;;;;;12.10;3.25;;;;;;;;;;5058822;28;20083;-69
2023/08/13 00:14:28;;;;;;;10.10;2.90;;;;;;;;;;5060849;28;20087;-69
2023/08/13 00:16:54;;;;;;;13.43;2.67;;;16.40;99.90;;;;;;5061827;28;20101;-69
2023/08/13 00:19:20;;;;;;;8.77;2.38;;;;;;;;;;5064341;28;20495;-69
2023/08/13 00:21:46;;;;;;;13.10;3.47;;;16.50;99.90;;;;;;5063616;28;20037;-69
2023/08/13 00:24:12;;;;;;;11.07;2.20;;;;;;;;;;5045936;28;20106;-69
2023/08/13 00:26:38;;;;;;;15.60;3.55;;;;;;;;;;5069059;28;20071;-69
2023/08/13 00:29:04;;;;;;;12.43;2.95;;;16.70;99.90;;;;;;5066491;28;20041;-68
2023/08/13 00:31:30;;;;;;;7.47;2.33;;;16.50;99.90;;;;;;5066534;28;20037;-69
2023/08/13 00:33:55;;;;;;;13.68;3.40;;;16.50;99.90;;;;;;5062484;28;20043;-69
2023/08/13 00:36:21;;;;;;;14.07;3.60;;;16.20;99.90;;;;;;5064706;28;20082;-69
2023/08/13 00:38:47;;;;;;;14.52;2.60;;;;;;;;;;5046342;28;20049;-69
2023/08/13 00:41:13;;;;;;;9.85;2.50;;;;;;;;;;5065478;28;20044;-69
2023/08/13 00:43:39;;;;;;;10.07;2.35;;;16.40;99.90;;;;;;5049137;28;20052;-69
2023/08/13 00:46:05;;;;;;;11.40;3.13;;;;;;;;;;5045945;28;20049;-69
2023/08/13 00:48:32;;;;;;;11.00;2.63;;;16.50;99.90;;;;;;5046748;28;20052;-69
2023/08/13 00:50:58;;;;;;;14.10;3.13;;;16.40;99.90;;;;;;5047521;28;20032;-69
2023/08/13 00:53:24;;;;;;;9.43;2.85;;;;;;;;;;5029726;28;20179;-69
2023/08/13 00:55:50;;;;;;;9.00;2.75;;;16.50;99.90;;;;;;5063646;28;20037;-69
2023/08/13 00:58:17;;;;;;;11.73;2.90;;;16.60;99.90;;;;;;5066534;28;20535;-69
2023/08/13 01:00:43;;;;;;;11.93;2.33;;;16.30;99.90;;;;;;5062190;28;20079;-69
2023/08/13 01:03:09;;;;;;;11.82;2.42;;;;;;;;;;5063271;28;20067;-69
2023/08/13 01:06:01;;;;;;;10.38;2.85;;;16.30;99.90;;;;;;5044562;28;20041;-69
2023/08/13 01:08:40;;;;;;;14.68;2.88;;;16.30;99.90;;;;;;5047898;28;20048;-69
2023/08/13 01:11:17;;;;;;;10.85;3.40;;;16.30;99.90;;;;;;5066265;28;20116;-69
2023/08/13 01:13:45;;;;;;;12.93;2.45;;;16.20;99.90;;;;;;5042694;28;20048;-69
2023/08/13 01:16:13;;;;;;;8.73;2.80;;;16.40;99.90;;;;;;5046598;28;20130;-69
2023/08/13 01:18:40;;;;;;;11.85;3.50;;;16.40;99.90;;;;;;5062925;28;20040;-69
2023/08/13 01:21:05;;;;;;;14.32;2.75;;;16.50;99.90;;;;;;5066834;28;20075;-69
2023/08/13 01:23:31;;;;;;;15.48;3.63;;;;;;;;;;5044923;28;20088;-69
2023/08/13 01:26:01;;;;;;;13.68;3.45;;;16.30;99.90;;;;;;5066810;28;20048;-69
2023/08/13 01:28:55;;;;;;;13.93;2.88;;;16.40;99.90;;;;;;5063398;28;20380;-69
2023/08/13 01:31:29;;;;;;;15.20;3.05;;;16.30;99.90;;;;;;5039760;28;20087;-69
2023/08/13 01:33:57;;;;;;;15.75;4.72;;;16.40;99.90;;;;;;5041313;28;20128;-69
2023/08/13 01:36:25;;;;;;;13.60;2.25;;;16.30;99.90;;;;;;5054963;28;20506;-69
2023/08/13 01:38:52;;;;;;;11.48;3.40;;;16.40;99.90;;;;;;5062060;28;20056;-69
2023/08/13 01:41:18;;;;;;;16.15;3.53;;;;;;;;;;5058724;28;20037;-69
2023/08/13 01:43:44;;;;;;;12.63;3.28;;;;;;;;;;5043827;28;20083;-69
2023/08/13 01:46:10;;;;;;;9.00;2.95;;;;;;;;;;5064642;28;20158;-69
2023/08/13 01:48:36;;;;;;;17.35;2.70;;;16.30;99.90;;;;;;5026057;28;20063;-69
2023/08/13 01:51:02;;;;;;;11.70;2.75;;;;;;;;;;5064096;28;20045;-69
2023/08/13 01:53:28;;;;;;;12.05;2.85;;;;;;;;;;5057636;28;20072;-69
2023/08/13 01:55:54;;;;;;;11.68;2.92;;;;;;;;;;5042486;28;20179;-69
2023/08/13 01:58:20;;;;;;;14.13;4.30;;;;;;;;;;5040054;28;20057;-69
2023/08/13 02:00:45;;;;;;;18.08;3.28;;;16.50;99.90;;;;;;5062187;28;20036;-69
2023/08/13 02:03:11;;;;;;;14.77;3.03;;;16.40;99.90;;;;;;5043631;28;20680;-69
2023/08/13 02:05:37;;;;;;;17.73;3.60;;;;;;;;;;5040990;28;20057;-69
2023/08/13 02:08:02;;;;;;;16.02;3.40;;;16.20;99.90;;;;;;5059230;28;20040;-69
2023/08/13 02:10:28;;;;;;;15.82;3.67;;;16.40;99.90;;;;;;5060906;28;20123;-69
2023/08/13 02:12:54;;;;;;;14.77;3.95;;;;;;;;;;5061882;28;20037;-69
2023/08/13 02:15:20;;;;;;;13.95;2.72;;;;;;;;;;5043911;28;20752;-69
2023/08/13 02:17:46;;;;;;;14.98;3.13;;;16.10;99.90;;;;;;5060748;28;20075;-68
2023/08/13 02:20:12;;;;;;;17.13;3.30;;;16.10;99.90;;;;;;5061117;28;20041;-69
2023/08/13 02:22:37;;;;;;;11.23;3.03;;;16.20;99.90;;;;;;5060467;28;20037;-69
2023/08/13 02:25:03;;;;;;;8.63;3.00;;;;;;;;;;5062331;28;20047;-69
2023/08/13 02:27:29;;;;;;;12.38;2.92;;;;;;;;;;5061131;28;20086;-69
2023/08/13 02:29:55;;;;;;;15.00;2.90;;;;;;;;;;5043242;28;20053;-69
2023/08/13 02:32:21;;;;;;;12.77;3.20;;;16.10;99.90;;;;;;5060194;28;20502;-69
2023/08/13 02:34:47;;;;;;;15.73;3.20;;;16.10;99.90;;;;;;5039158;28;20041;-69
2023/08/13 02:37:13;;;;;;;12.85;2.88;;;;;;;;;;5059763;28;20067;-69
2023/08/13 02:39:39;;;;;;;14.77;2.90;;;15.80;99.90;;;;;;5043137;28;20068;-69
2023/08/13 02:42:04;;;;;;;12.48;3.63;;;15.90;99.90;;;;;;5043120;28;20183;-69
2023/08/13 02:44:30;;;;;;;12.30;3.33;;;;;;;;;;5061380;28;20079;-69
2023/08/13 02:46:56;;;;;;;16.65;3.58;;;15.90;99.90;;;;;;5060618;28;20087;-69
2023/08/13 02:49:21;;;;;;;14.20;3.92;;;15.90;99.90;;;;;;5059574;28;20036;-69
2023/08/13 02:51:47;;;;;;;12.43;2.78;;;;;;;;;;5043171;28;20052;-69
2023/08/13 02:54:13;;;;;;;13.60;2.90;;;;;;;;;;5060220;28;20500;-69
2023/08/13 02:56:41;;;;;;;17.63;3.47;;;15.90;99.90;;;;;;5041508;28;20090;-69
2023/08/13 02:59:07;;;;;;;15.93;2.88;;;15.80;99.90;;;;;;5059523;28;20075;-69
2023/08/13 03:01:33;;;;;;;13.93;3.22;;;;;;;;;;5060119;28;20083;-69
2023/08/13 03:04:02;;;;;;;17.92;3.55;;;15.80;99.90;;;;;;5040175;28;20107;-69
2023/08/13 03:06:28;;;;;;;14.05;3.10;;;;;;;;;;5042600;28;20507;-69
2023/08/13 03:08:54;;;;;;;14.30;3.35;;;;;;;;;;5062933;28;20036;-69
2023/08/13 03:11:21;;;;;;;13.32;3.22;;;;;;;;;;5040862;28;20044;-69
2023/08/13 03:13:47;;;;;;;14.88;3.72;;;;;;;;;;5042619;28;20048;-68
2023/08/13 03:16:13;;;;;;;12.63;3.53;;;;;;;;;;5041146;28;20052;-69
2023/08/13 03:18:40;;;;;;;18.67;3.75;;;15.60;99.90;;;;;;5062313;28;20064;-68
2023/08/13 03:21:06;;;;;;;12.98;4.03;;;;;;;;;;5042071;28;20044;-69
2023/08/13 03:23:32;;;;;;;13.20;3.80;;;;;;;;;;5056011;28;20049;-70
2023/08/13 03:25:58;;;;;;;16.35;4.03;;;;;;;;;;5057675;28;20047;-69
2023/08/13 03:28:24;;;;;;;15.27;3.70;;;15.60;99.90;;;;;;5060532;28;20478;-68
2023/08/13 03:30:50;;;;;;;15.52;4.20;;;;;;;;;;5060741;28;20083;-69
2023/08/13 03:33:15;;;;;;;14.18;3.83;;;15.60;99.90;;;;;;5058515;28;20039;-69
2023/08/13 03:35:42;;;;;;;15.63;3.92;;;;;;;;;;5040901;28;20137;-69
2023/08/13 03:38:08;;;;;;;17.48;4.10;;;;;;;;;;5057425;28;20661;-69
2023/08/13 03:40:37;;;;;;;15.50;3.83;;;15.80;99.90;;;;;;5040897;28;20127;-69
2023/08/13 03:43:03;;;;;;;12.15;3.20;;;15.80;99.90;;;;;;5058115;28;20041;-69
2023/08/13 03:45:29;;;;;;;14.43;3.63;;;15.60;99.90;;;;;;5055232;28;20040;-69
2023/08/13 03:47:55;;;;;;;11.55;3.65;;;;;;;;;;5060176;28;20517;-69
2023/08/13 03:50:21;;;;;;;17.02;3.95;;;15.80;99.90;;;;;;5041981;28;20044;-68
2023/08/13 03:52:47;;;;;;;18.27;5.22;;;;;;;;;;5058851;28;20041;-69
2023/08/13 03:55:13;;;;;;;11.95;3.33;;;15.90;99.90;;;;;;5060317;28;20036;-69
2023/08/13 03:57:39;;;;;;;10.93;3.60;;;;;;;;;;5040497;28;20170;-69
2023/08/13 04:00:05;;;;;;;17.35;3.47;;;15.80;99.90;;;;;;5035997;28;20530;-69
2023/08/13 04:02:33;;;;;;;12.38;3.30;;;16.10;99.90;;;;;;5056866;28;21021;-69
2023/08/13 04:04:59;;;;;;;18.40;4.07;;;15.90;99.90;;;;;;5062602;28;20128;-69
2023/08/13 04:07:25;;;;;;;10.98;3.60;;;;;;;;;;5062311;28;20121;-69
2023/08/13 04:09:51;;;;;;;13.43;3.60;;;;;;;;;;5043694;28;20099;-68
2023/08/13 04:12:17;;;;;;;18.85;4.15;;;;;;;;;;5056496;28;20120;-69
2023/08/13 04:14:43;;;;;;;7.60;3.22;;;;;;;;;;5057206;28;20036;-69
2023/08/13 04:17:09;;;;;;;16.05;3.78;;;;;;;;;;5040376;28;20076;-69
2023/08/13 04:19:35;;;;;;;15.60;4.43;;;;;;;;;;5058109;28;20481;-69
2023/08/13 04:22:01;;;;;;;13.68;3.33;;;;;;;;;;5057334;28;20113;-69
2023/08/13 04:24:26;;;;;;;17.70;3.45;;;16.00;99.90;;;;;;5060020;28;20075;-69
2023/08/13 04:26:52;;;;;;;11.35;3.35;;;;;;;;;;5056833;28;20056;-69
2023/08/13 04:29:18;;;;;;;21.55;3.83;;;;;;;;;;5062119;28;20462;-68
2023/08/13 04:31:44;;;;;;;12.88;3.45;;;;;;;;;;5059829;28;20045;-69
2023/08/13 04:34:10;;;;;;;14.02;4.40;;;16.00;99.90;;;;;;5057222;28;20029;-68
2023/08/13 04:36:36;;;;;;;16.17;3.67;;;;;;;;;;5041277;28;20083;-69
2023/08/13 04:39:02;;;;;;;10.57;3.42;;;16.10;99.90;;;;;;5038958;28;20056;-69
2023/08/13 04:41:28;;;;;;;13.18;3.38;;;16.00;99.90;;;;;;5022410;28;20052;-68
2023/08/13 04:43:54;;;;;;;13.18;5.45;;;;;;;;;;5039745;28;20044;-69
2023/08/13 04:46:20;;;;;;;14.60;3.58;;;;;;;;;;5039684;28;20041;-69
2023/08/13 04:48:47;;;;;;;11.77;3.63;;;16.10;99.90;;;;;;5057876;28;20033;-69
2023/08/13 04:51:13;;;;;;;13.60;3.38;;;;;;;;;;5041943;28;20573;-68
2023/08/13 04:53:39;;;;;;;12.18;3.22;;;16.10;99.90;;;;;;5059391;28;20052;-69
2023/08/13 04:56:08;;;;;;;10.98;3.75;;;;;;;;;;5039027;28;20044;-69
2023/08/13 04:58:35;;;;;;;11.82;3.33;;;16.10;99.90;;;;;;5059574;28;20699;-69
2023/08/13 05:01:01;;;;;;;14.45;3.67;;;16.10;99.90;;;;;;5055421;28;20041;-69
2023/08/13 05:03:27;;;;;;;13.85;4.03;;;16.20;99.90;;;;;;5058362;28;20040;-69
2023/08/13 05:05:53;;;;;;;15.52;4.18;;;;;;;;;;5063081;28;20608;-69
2023/08/13 05:08:18;;;;;;;14.93;4.53;;;16.20;99.90;;;;;;5062719;28;20087;-69
2023/08/13 05:10:45;;;;;;;14.38;3.60;;;16.30;99.90;;;;;;5041526;28;20488;-69
2023/08/13 05:13:15;;;;;;;12.90;4.00;;;16.10;99.90;;;;;;5043642;28;20118;-68
2023/08/13 05:15:41;;;;;;;14.05;3.38;;;;;;;;;;5062149;28;20051;-69
2023/08/13 05:18:07;;;;;;;8.77;3.67;;;;;;;;;;5063610;28;20119;-69
2023/08/13 05:20:33;;;;;;;13.75;3.58;;;;;;;;;;5061161;28;20477;-69
2023/08/13 05:22:59;;;;;;;13.32;3.80;;;;;;;;;;5060636;28;20036;-69
2023/08/13 05:25:25;;;;;;;16.55;4.72;;;16.40;99.90;;;;;;5045854;28;20099;-69
2023/08/13 05:27:51;;;;;;;13.25;3.80;;;16.30;99.90;;;;;;5040636;28;20033;-69
2023/08/13 05:30:17;;;;;;;12.63;3.97;;;;;;;;;;5042955;28;20044;-69
2023/08/13 05:32:43;;;;;;;17.60;4.07;;;16.50;99.90;;;;;;5061263;28;20120;-69
2023/08/13 05:35:09;;;;;;;9.27;3.63;;;;;;;;;;5060162;28;20047;-69
2023/08/13 05:37:35;;;;;;;12.55;3.78;;;;;;;;;;5061964;28;20640;-69
2023/08/13 05:40:00;;;;;;;12.60;4.00;;;16.40;99.90;;;;;;5041132;28;20084;-68
2023/08/13 05:42:26;;;;;;;17.70;4.45;;;16.40;99.90;;;;;;5030514;28;20159;-69
2023/08/13 05:44:52;;;;;;;13.10;4.25;;;;;;;;;;5061592;28;20853;-69
2023/08/13 05:47:18;;;;;;;13.25;3.45;;;;;;;;;;5060944;28;20057;-69
2023/08/13 05:49:44;;;;;;;13.32;3.70;;;;;;;;;;5062700;28;20048;-69
2023/08/13 05:52:13;;;;;;;13.43;4.18;;;;;;;;;;5060300;28;20119;-69
2023/08/13 05:54:39;;;;;;;10.85;3.58;;;;;;;;;;5043372;28;20424;-69
2023/08/13 05:57:04;;;;;;;9.02;3.92;;;16.60;99.90;;;;;;5061379;28;20044;-69
2023/08/13 05:59:33;;;;;;;11.35;3.67;;;;;;;;;;5041369;28;20105;-69
2023/08/13 06:01:58;;;;;;;11.95;3.75;;;16.90;99.90;;;;;;5057686;28;20116;-69
2023/08/13 06:04:24;;;;;;;16.33;3.75;;;;;;;;;;5062441;28;20132;-69
2023/08/13 06:06:50;;;;;;;11.10;3.53;;;;;;;;;;5063743;28;20044;-69
2023/08/13 06:09:16;;;;;;;14.90;3.60;;;;;;;;;;5044175;28;20040;-69
2023/08/13 06:11:42;;;;;;;15.10;3.45;;;17.10;99.90;;;;;;5060585;28;20040;-69
2023/08/13 06:14:07;;;;;;;13.82;3.47;;;;;;;;;;5061555;28;20032;-69
2023/08/13 06:16:33;;;;;;;9.60;3.22;;;18.60;99.90;;;;;;5061430;28;20056;-68
2023/08/13 06:18:59;;;;;;;13.40;3.00;;;;;;;;;;5061288;28;20693;-69
2023/08/13 06:21:25;;;;;;;8.88;2.70;;;;;;;;;;5042900;28;20052;-69
2023/08/13 06:23:51;;;;;;;8.98;2.53;;;21.10;99.90;;;;;;5060212;28;20116;-69
2023/08/13 06:26:16;;;;;;;12.32;2.38;;;21.20;99.90;;;;;;5038160;28;20044;-69
2023/08/13 06:28:42;;;;;;;11.63;2.78;;;22.10;99.90;;;;;;5061256;28;20033;-69
2023/08/13 06:31:07;;;;;;;13.80;3.00;;;22.40;99.90;;;;;;5061994;28;20144;-69
2023/08/13 06:33:33;;;;;;;10.00;2.10;;;23.00;99.90;;;;;;5061082;28;20466;-69
2023/08/13 06:35:58;;;;;;;8.02;2.22;;;23.00;99.90;;;;;;5043195;28;20048;-69
2023/08/13 06:38:25;;;;;;;7.50;2.33;;;22.60;99.90;;;;;;5041618;28;20090;-69
2023/08/13 06:40:51;;;;;;;10.57;2.58;;;21.50;99.90;;;;;;5059189;28;20079;-69
2023/08/13 06:43:17;;;;;;;13.02;2.70;;;21.80;99.90;;;;;;5059576;28;20063;-69
2023/08/13 06:45:42;;;;;;;11.45;2.53;;;20.60;99.90;;;;;;5061036;28;20044;-69
2023/08/13 06:48:08;;;;;;;10.73;2.70;;;20.30;99.90;;;;;;5060284;28;20036;-69
2023/08/13 06:50:34;;;;;;;11.63;2.28;;;20.80;99.90;;;;;;5058712;28;20730;-69
2023/08/13 06:53:00;;;;;;;8.65;2.42;;;21.70;99.90;;;;;;5044127;28;20067;-69
2023/08/13 06:55:25;;;;;;;8.63;2.50;;;22.10;99.90;;;;;;5055307;28;20043;-69
2023/08/13 06:57:51;;;;;;;6.72;2.08;;;21.70;99.90;;;;;;5061740;28;20463;-68
2023/08/13 07:00:19;;;;;;;7.65;1.98;;;21.20;99.90;;;;;;5060465;28;20102;-68
2023/08/13 07:02:45;;;;;;;12.57;3.72;;;20.10;99.90;;;;;;5059383;28;20072;-68
2023/08/13 07:05:12;;;;;;;11.27;3.15;;;20.20;99.90;;;;;;5057008;28;20103;-68
2023/08/13 07:07:38;;;;;;;11.43;3.20;;;19.60;99.90;;;;;;5058572;28;20051;-68
2023/08/13 07:10:05;;;;;;;9.90;3.00;;;19.70;99.90;;;;;;5043701;28;20491;-67
2023/08/13 07:12:30;;;;;;;10.98;3.05;;;19.30;99.90;;;;;;5038158;28;20044;-67
2023/08/13 07:14:56;;;;;;;14.02;3.10;;;19.00;99.90;;;;;;5059566;28;20072;-68
2023/08/13 07:17:22;;;;;;;11.05;2.65;;;19.40;99.90;;;;;;5063342;28;20042;-68
2023/08/13 07:19:49;;;;;;;9.30;2.88;;;19.20;99.90;;;;;;5063652;28;20492;-68
2023/08/13 07:22:16;;;;;;;11.50;2.58;;;19.10;99.90;;;;;;5064751;28;20045;-68
2023/08/13 07:24:42;;;;;;;10.10;2.88;;;19.20;99.90;;;;;;5061700;28;20047;-67
2023/08/13 07:27:10;;;;;;;10.45;2.70;;;19.00;99.90;;;;;;5062451;28;20374;-68
2023/08/13 07:29:36;;;;;;;10.35;2.70;;;;;;;;;;5046733;28;20500;-67
2023/08/13 07:32:02;;;;;;;9.77;2.42;;;19.00;99.90;;;;;;5063336;28;20115;-68
2023/08/13 07:34:27;;;;;;;11.90;2.47;;;19.10;99.90;;;;;;5044190;28;20063;-69
2023/08/13 07:36:53;;;;;;;14.52;2.80;;;;;;;;;;5039500;28;20041;-72
2023/08/13 07:39:19;;;;;;;9.88;2.67;;;19.20;99.90;;;;;;5059868;28;20053;-72
2023/08/13 07:41:48;;;;;;;9.38;2.58;;;;;;;;;;5061492;28;20036;-73
2023/08/13 07:44:14;;;;;;;8.10;2.45;;;;;;;;;;5046018;28;20059;-73
2023/08/13 07:46:40;;;;;;;10.07;2.10;;;;;;;;;;5045218;28;20099;-73
2023/08/13 07:49:06;;;;;;;14.45;2.33;;;;;;;;;;5061484;28;21633;-73
2023/08/13 07:51:32;;;;;;;13.80;2.90;;;19.40;99.90;;;;;;5044582;28;20071;-73
2023/08/13 07:53:57;;;;;;;12.68;2.55;;;19.30;99.90;;;;;;5064748;28;20072;-73
2023/08/13 07:56:23;;;;;;;11.27;2.60;;;;;;;;;;5044629;28;20487;-73
2023/08/13 07:58:49;;;;;;;12.32;2.75;;;;;;;;;;5045486;28;20721;-74
2023/08/13 08:01:17;;;;;;;14.15;2.58;;;19.30;99.90;;;;;;5045676;28;20489;-74
2023/08/13 08:03:42;;;;;;;15.95;3.63;;;19.30;99.90;;;;;;5061587;28;20040;-73
2023/08/13 08:06:08;;;;;;;8.90;2.47;;;19.40;99.90;;;;;;5056293;28;20037;-73
2023/08/13 08:08:33;;;;;;;8.25;2.70;;;19.50;99.90;;;;;;5058818;28;20036;-73
2023/08/13 08:10:59;;;;;;;11.85;3.03;;;19.40;99.90;;;;;;5040769;28;20040;-73
2023/08/13 08:13:24;;;;;;;14.13;3.10;;;19.40;99.90;;;;;;5059474;28;20040;-72
2023/08/13 08:15:50;;;;;;;13.93;2.92;;;19.40;99.90;;;;;;5058954;28;20646;-72
2023/08/13 08:18:15;;;;;;;8.30;2.67;;;19.50;99.90;;;;;;5027476;28;20106;-72
2023/08/13 08:20:41;;;;;;;12.07;2.10;;;;;;;;;;5041219;28;20072;-72
2023/08/13 08:23:07;;;;;;;8.40;2.10;;;19.50;99.90;;;;;;5058561;28;20036;-73
2023/08/13 08:25:33;;;;;;;13.43;3.63;;;19.60;99.90;;;;;;5039912;28;20131;-72
2023/08/13 08:27:58;;;;;;;8.70;2.80;;;19.60;99.90;;;;;;5059323;28;20364;-73
2023/08/13 08:30:24;;;;;;;9.13;2.42;;;19.70;99.90;;;;;;5054479;28;20046;-72
2023/08/13 08:32:50;;;;;;;9.38;2.53;;;19.70;99.90;;;;;;5038693;28;20093;-73
2023/08/13 08:35:15;;;;;;;6.13;1.80;;;19.70;99.90;;;;;;5059178;28;20054;-72
2023/08/13 08:37:41;;;;;;;6.53;2.30;;;19.80;99.90;;;;;;5061312;28;20124;-73
2023/08/13 08:40:07;;;;;;;9.50;1.80;;;20.00;99.90;;;;;;5061135;28;20080;-72
2023/08/13 08:42:33;;;;;;;8.70;1.95;;;19.80;99.90;;;;;;5063351;28;20191;-72
2023/08/13 08:45:02;;;;;;;8.68;2.90;;;19.80;99.90;;;;;;5061585;28;20512;-72
2023/08/13 08:47:28;;;;;;;9.25;2.42;;;19.70;99.90;;;;;;5041860;28;20052;-72
2023/08/13 08:49:54;;;;;;;10.85;2.17;;;19.80;99.90;;;;;;5026915;28;20119;-72
2023/08/13 08:52:20;;;;;;;9.73;2.10;;;19.80;99.90;;;;;;5040511;28;20036;-72
2023/08/13 08:54:47;;;;;;;6.45;2.13;;;19.70;99.90;;;;;;5064732;28;20045;-72
2023/08/13 08:57:13;;;;;;;8.45;2.28;;;19.90;99.90;;;;;;5043844;28;20477;-73
2023/08/13 08:59:39;;;;;;;11.13;1.92;;;19.80;99.90;;;;;;5062384;28;20036;-72
2023/08/13 09:02:05;;;;;;;7.72;1.92;;;19.80;99.90;;;;;;5062366;28;20102;-72
2023/08/13 09:04:30;;;;;;;12.10;1.90;;;19.90;99.90;;;;;;5045857;28;20040;-72
2023/08/13 09:07:04;;;;;;;13.80;2.95;;;20.00;99.90;;;;;;5060365;28;20052;-72
2023/08/13 09:09:31;;;;;;;8.50;1.83;;;20.00;99.90;;;;;;5062571;28;20040;-72
2023/08/13 09:11:57;;;;;;;8.73;2.28;;;20.10;99.90;;;;;;5058396;28;20042;-72
2023/08/13 09:14:24;;;;;;;8.63;1.80;;;20.20;99.90;;;;;;5054551;28;20075;-72
2023/08/13 09:16:55;;;;;;;9.48;2.03;;;20.60;99.90;;;;;;5041936;28;20048;-72
2023/08/13 09:19:26;;;;;;;6.63;1.83;;;20.60;99.90;;;;;;5049744;28;20441;-72
2023/08/13 09:21:53;;;;;;;7.78;2.63;;;21.20;99.90;;;;;;5040415;28;20850;-72
2023/08/13 09:24:29;;;;;;;7.35;1.73;;;22.20;99.90;;;;;;5043008;28;20140;-72
2023/08/13 09:26:55;;;;;;;6.07;2.05;;;20.90;99.90;;;;;;5038221;28;20086;-72
2023/08/13 09:29:20;;;;;;;6.93;1.55;;;21.10;99.90;;;;;;5038110;28;20176;-73
2023/08/13 09:31:46;;;;;;;2.90;1.13;;;21.00;99.90;;;;;;5042342;28;20123;-72
2023/08/13 09:34:11;;;;;;;10.85;1.67;;;22.80;99.90;;;;;;5062339;28;20720;-72
2023/08/13 09:36:38;;;;;;;8.75;1.35;;;21.00;99.90;;;;;;5050364;28;20086;-72
2023/08/13 09:39:04;;;;;;;7.65;1.60;;;20.90;99.90;;;;;;5054320;28;20071;-72
2023/08/13 09:41:30;;;;;;;5.40;1.30;;;20.80;99.90;;;;;;5018783;28;20041;-72
2023/08/13 09:44:02;;;;;;;5.53;1.10;;;21.00;99.90;;;;;;5037533;28;20047;-72
2023/08/13 09:46:29;;;;;;;8.88;1.27;;;20.90;99.90;;;;;;5041795;28;20091;-72
2023/08/13 09:48:58;;;;;;;7.03;1.58;;;21.00;99.90;;;;;;5061613;28;20067;-72
2023/08/13 09:51:31;;;;;;;7.75;1.63;;;22.20;99.90;;;;;;5044986;28;20078;-72
2023/08/13 09:54:13;;;;;;;4.47;1.38;;;21.20;99.90;;;;;;5043912;28;20045;-72
2023/08/13 10:05:32;;;;;;;7.05;1.88;;;21.20;99.90;;;;;;5099999;22;20064;-72
2023/08/13 10:07:58;;;;;;;4.70;1.15;;;21.60;99.90;;;;;;5033179;28;20876;-72
2023/08/13 10:10:25;;;;;;;3.67;1.00;;;21.50;99.90;;;;;;5032629;28;20856;-72
2023/08/13 10:12:51;;;;;;;6.65;1.08;;;21.90;99.90;;;;;;5029907;28;20037;-72
2023/08/13 10:15:19;;;;;;;6.57;1.42;;;21.50;99.90;;;;;;5019149;28;20175;-72
2023/08/13 10:17:45;;;;;;;3.65;1.27;;;21.60;99.90;;;;;;5031941;28;20112;-72
2023/08/13 10:20:11;;;;;;;9.23;1.88;;;23.00;99.90;;;;;;5028290;28;20048;-72
2023/08/13 10:22:39;;;;;;;7.43;1.63;;;21.30;99.90;;;;;;5010890;28;20041;-72
2023/08/13 10:25:10;;;;;;;5.90;1.10;;;21.50;99.90;;;;;;5013722;28;20411;-72
2023/08/13 10:27:43;;;;;;;3.05;0.82;;;21.40;99.90;;;;;;5030507;28;20171;-72
2023/08/13 10:30:13;;;;;;;4.68;1.02;;;21.10;99.90;;;;;;5020549;28;20567;-72
2023/08/13 10:32:58;;;;;;;5.45;1.30;;;21.30;99.90;;;;;;5016325;28;20455;-72
2023/08/13 10:35:40;;;;;;;6.25;1.13;;;20.90;99.90;;;;;;5024503;28;20041;-72
2023/08/13 10:38:07;;;;;;;5.97;1.40;;;21.20;99.90;;;;;;5033084;28;20533;-72
2023/08/13 10:40:33;;;;;;;5.60;1.40;;;21.50;99.90;;;;;;5019789;28;20042;-72
2023/08/13 10:42:59;;;;;;;5.78;1.05;;;21.50;99.90;;;;;;5028024;28;20045;-72
2023/08/13 10:45:32;;;;;;;10.30;1.83;;;21.10;99.90;;;;;;5030343;28;20052;-72
2023/08/13 10:48:03;;;;;;;5.03;1.70;;;21.10;99.90;;;;;;5028715;28;20582;-72
2023/08/13 10:50:34;;;;;;;6.65;1.30;;;21.00;99.90;;;;;;5000174;28;20599;-72
2023/08/13 10:53:04;;;;;;;5.45;1.30;;;21.20;99.90;;;;;;5026054;28;20041;-72
2023/08/13 10:55:33;;;;;;;5.32;1.75;;;22.60;99.90;;;;;;5027909;28;20045;-72
2023/08/13 10:57:59;;;;;;;5.32;1.42;;;21.50;99.90;;;;;;4997404;28;20162;-72
2023/08/13 11:00:26;;;;;;;7.95;1.17;;;21.40;99.90;;;;;;5009026;28;20050;-72
2023/08/13 11:03:15;;;;;;;5.03;1.52;;;21.50;99.90;;;;;;5026575;28;20033;-72
2023/08/13 11:05:42;;;;;;;4.40;0.82;;;21.70;99.90;;;;;;5002091;28;20057;-72
2023/08/13 11:08:08;;;;;;;3.13;0.68;;;21.60;99.90;;;;;;5020060;28;20419;-72
2023/08/13 11:10:35;;;;;;;5.95;0.68;;;21.80;99.90;;;;;;5024743;28;20047;-72
2023/08/13 11:13:05;;;;;;;4.90;0.73;;;21.40;99.90;;;;;;5043775;28;20056;-72
2023/08/13 11:15:30;;;;;;;3.83;0.85;;;21.40;99.90;;;;;;5008176;28;20468;-72
2023/08/13 11:17:56;;;;;;;2.72;0.70;;;21.40;99.90;;;;;;5027209;28;20080;-72
2023/08/13 11:20:23;;;;;;;4.93;1.15;;;22.60;99.90;;;;;;5028812;28;20395;-72
2023/08/13 11:22:49;;;;;;;3.63;0.65;;;21.40;99.90;;;;;;5029851;28;20041;-72
2023/08/13 11:25:15;;;;;;;4.18;0.88;;;22.80;99.90;;;;;;5027442;28;20053;-72
2023/08/13 11:27:40;;;;;;;5.05;0.60;;;21.40;99.90;;;;;;5030864;28;20065;-72
2023/08/13 11:30:09;;;;;;;5.72;1.13;;;23.00;99.90;;;;;;5006801;28;20050;-72
2023/08/13 11:32:36;;;;;;;5.43;1.10;;;21.70;99.90;;;;;;5022628;28;20415;-72
2023/08/13 11:35:09;;;;;;;4.65;1.02;;;21.40;99.90;;;;;;5033290;28;20048;-72
2023/08/13 11:37:36;;;;;;;6.05;0.85;;;21.50;99.90;;;;;;5019147;28;20136;-72
2023/08/13 11:40:05;;;;;;;2.33;0.63;;;21.60;99.90;;;;;;5029926;28;20083;-72
2023/08/13 11:42:31;;;;;;;3.67;1.17;;;21.40;99.90;;;;;;5033322;28;20120;-72
2023/08/13 11:44:56;;;;;;;5.65;1.13;;;21.50;99.90;;;;;;5013923;28;20454;-72
2023/08/13 11:47:26;;;;;;;6.88;0.95;;;21.40;99.90;;;;;;5031213;28;20041;-72
2023/08/13 11:49:54;;;;;;;6.10;0.95;;;22.40;99.90;;;;;;5011869;28;20697;-72
2023/08/13 11:52:21;;;;;;;5.30;1.20;;;21.60;99.90;;;;;;5001782;28;20129;-72
2023/08/13 11:54:47;;;;;;;8.07;1.40;;;21.50;99.90;;;;;;5010381;28;20044;-72
2023/08/13 11:57:14;;;;;;;4.63;0.93;;;21.30;99.90;;;;;;5025324;28;20041;-73
2023/08/13 11:59:40;;;;;;;4.05;0.95;;;21.30;99.90;;;;;;5030902;28;20091;-72
2023/08/13 12:02:05;;;;;;;3.45;1.10;;;21.40;99.90;;;;;;5021210;28;20038;-73
2023/08/13 12:04:32;;;;;;;4.25;1.17;;;21.30;99.90;;;;;;4996957;28;21583;-72
2023/08/13 12:06:58;;;;;;;4.78;0.85;;;21.30;99.90;;;;;;5017041;28;20041;-72
2023/08/13 12:09:24;;;;;;;4.40;0.70;;;22.80;99.90;;;;;;5016913;28;20586;-73
2023/08/13 12:11:53;;;;;;;5.30;1.02;;;21.60;99.90;;;;;;5024038;28;20737;-72
2023/08/13 12:14:18;;;;;;;5.57;0.75;;;21.40;99.90;;;;;;5026131;28;20049;-72
2023/08/13 12:16:44;;;;;;;9.68;0.90;;;21.30;99.90;;;;;;5024818;28;20040;-72
2023/08/13 12:19:09;;;;;;;3.78;1.10;;;21.50;99.90;;;;;;5025320;28;20044;-72
2023/08/13 12:21:36;;;;;;;5.40;0.90;;;21.50;99.90;;;;;;5001474;28;20772;-72
2023/08/13 12:24:05;;;;;;;4.68;1.00;;;21.30;99.90;;;;;;5026474;28;20060;-72
2023/08/13 12:26:32;;;;;;;4.35;0.93;;;21.40;99.90;;;;;;5026108;28;20053;-72
2023/08/13 12:28:58;;;;;;;5.32;1.27;;;21.80;99.90;;;;;;5017356;28;20530;-72
2023/08/13 12:31:25;;;;;;;6.03;1.33;;;21.90;99.90;;;;;;5024076;28;20045;-72
2023/08/13 12:33:52;;;;;;;4.65;1.23;;;21.60;99.90;;;;;;5031177;28;20195;-72
2023/08/13 12:36:18;;;;;;;4.85;1.15;;;22.50;99.90;;;;;;5020777;28;20050;-72
2023/08/13 12:38:44;;;;;;;5.22;1.08;;;21.70;99.90;;;;;;5013734;28;20065;-72
2023/08/13 12:41:10;;;;;;;3.55;1.15;;;21.90;99.90;;;;;;5009445;28;20697;-72
2023/08/13 12:43:36;;;;;;;5.40;1.10;;;21.80;99.90;;;;;;5023324;28;20136;-72
2023/08/13 12:46:06;;;;;;;3.85;0.98;;;21.60;99.90;;;;;;5008474;28;20814;-72
2023/08/13 12:48:36;;;;;;;3.78;0.80;;;21.70;99.90;;;;;;5016488;28;20056;-72
2023/08/13 12:51:02;;;;;;;7.70;1.17;;;21.80;99.90;;;;;;5005748;28;20068;-72
2023/08/13 12:53:29;;;;;;;10.63;1.75;;;22.50;99.90;;;;;;5025530;28;20118;-72
2023/08/13 12:55:55;;;;;;;8.57;1.98;;;22.10;99.90;;;;;;5035372;28;20041;-72
2023/08/13 12:58:20;;;;;;;5.53;1.50;;;21.90;99.90;;;;;;5012468;28;20124;-72
2023/08/13 13:00:46;;;;;;;8.75;2.03;;;23.50;99.90;;;;;;5002656;28;20135;-72
2023/08/13 13:03:11;;;;;;;7.10;1.88;;;22.10;99.90;;;;;;5020118;28;20105;-72
2023/08/13 13:05:37;;;;;;;7.88;2.20;;;21.90;99.90;;;;;;5000225;28;20058;-72
2023/08/13 13:08:03;;;;;;;6.18;1.90;;;21.80;99.90;;;;;;5005163;28;20074;-72
2023/08/13 13:10:28;;;;;;;7.00;1.45;;;22.30;99.90;;;;;;5015223;28;20050;-72
2023/08/13 13:12:54;;;;;;;6.88;1.33;;;22.00;99.90;;;;;;4987889;28;20045;-72
2023/08/13 13:15:20;;;;;;;9.02;1.63;;;21.90;99.90;;;;;;5029789;28;20063;-73
2023/08/13 13:17:46;;;;;;;8.75;1.80;;;21.90;99.90;;;;;;5034696;28;20045;-72